createdAt,value
2022-09-27T00:00:34.000Z,0.90
2022-09-27T00:03:02.851Z,1.15
2022-09-27T00:05:31.606Z,0.82
2022-09-27T00:07:59.831Z,0.95
2022-09-27T00:10:29.819Z,1.00
2022-09-27T00:12:58.938Z,1.00
2022-09-27T00:15:27.750Z,0.73
2022-09-27T00:17:56.030Z,1.13
2022-09-27T00:20:24.415Z,0.98
2022-09-27T00:22:52.765Z,1.00
2022-09-27T00:25:20.998Z,0.70
2022-09-27T00:27:52.180Z,0.88
2022-09-27T00:30:20.571Z,0.80
2022-09-27T00:32:49.265Z,0.70
2022-09-27T00:35:17.661Z,0.77
2022-09-27T00:37:49.642Z,0.70
2022-09-27T00:40:19.739Z,0.95
2022-09-27T00:42:48.516Z,0.65
2022-09-27T00:45:19.019Z,0.68
2022-09-27T00:47:53.978Z,0.80
2022-09-27T00:50:29.724Z,0.75
2022-09-27T00:53:10.268Z,0.80
2022-09-27T00:55:42.645Z,0.77
2022-09-27T00:58:14.299Z,0.70
2022-09-27T01:00:49.836Z,0.85
2022-09-27T01:03:27.742Z,0.70
2022-09-27T01:05:56.947Z,0.65
2022-09-27T01:08:31.604Z,0.85
2022-09-27T01:11:16.169Z,0.70
2022-09-27T01:13:57.918Z,0.60
2022-09-27T01:16:37.528Z,0.98
2022-09-27T01:19:22.877Z,1.20
2022-09-27T01:22:00.225Z,0.50
2022-09-27T01:24:54.340Z,0.60
2022-09-27T01:28:01.784Z,0.77
2022-09-27T01:30:39.652Z,0.60
2022-09-27T01:33:19.275Z,0.90
2022-09-27T01:36:07.665Z,0.60
2022-09-27T01:38:46.671Z,0.65
2022-09-27T01:41:34.817Z,0.80
2022-09-27T01:44:26.085Z,0.80
2022-09-27T01:47:06.503Z,0.70
2022-09-27T01:49:54.391Z,0.73
2022-09-27T01:52:27.741Z,0.70
2022-09-27T01:55:02.565Z,0.60
2022-09-27T01:57:47.248Z,0.70
2022-09-27T02:00:22.540Z,0.68
2022-09-27T02:03:07.711Z,1.27
2022-09-27T02:05:40.528Z,0.90
2022-09-27T02:08:38.378Z,1.02
2022-09-27T02:11:15.428Z,0.90
2022-09-27T02:13:54.798Z,0.70
2022-09-27T02:16:59.249Z,0.90
2022-09-27T02:19:42.331Z,0.60
2022-09-27T02:22:19.112Z,0.70
2022-09-27T02:24:51.837Z,0.70
2022-09-27T02:27:26.653Z,0.90
2022-09-27T02:30:10.648Z,0.77
2022-09-27T02:32:39.813Z,1.00
2022-09-27T02:35:15.295Z,1.60
2022-09-27T02:37:44.079Z,0.90
2022-09-27T02:40:13.826Z,0.80
2022-09-27T02:42:45.516Z,1.05
2022-09-27T02:45:16.146Z,1.10
2022-09-27T02:48:04.710Z,1.25
2022-09-27T02:50:47.925Z,2.00
2022-09-27T02:53:38.652Z,1.90
2022-09-27T02:56:28.519Z,1.50
2022-09-27T02:59:45.430Z,1.70
2022-09-27T03:02:34.716Z,1.73
2022-09-27T03:05:26.559Z,2.45
2022-09-27T03:07:56.159Z,2.13
2022-09-27T03:10:26.892Z,1.55
2022-09-27T03:12:56.134Z,2.30
2022-09-27T03:15:24.701Z,2.67
2022-09-27T03:18:02.266Z,2.00
2022-09-27T03:20:42.432Z,2.30
2022-09-27T03:23:17.833Z,1.98
2022-09-27T03:25:46.448Z,2.97
2022-09-27T03:28:15.060Z,2.45
2022-09-27T03:30:47.098Z,2.50
2022-09-27T03:33:30.000Z,3.00
2022-09-27T03:36:00.149Z,3.63
2022-09-27T03:38:29.861Z,3.00
2022-09-27T03:41:01.236Z,3.08
2022-09-27T03:43:31.229Z,3.13
2022-09-27T03:46:03.880Z,2.70
2022-09-27T03:48:32.416Z,3.38
2022-09-27T03:51:00.978Z,2.55
2022-09-27T03:53:32.339Z,3.13
2022-09-27T03:56:00.741Z,2.65
2022-09-27T03:58:29.225Z,2.83
2022-09-27T04:00:57.647Z,2.25
2022-09-27T04:03:27.198Z,2.35
2022-09-27T04:06:14.208Z,4.18
2022-09-27T04:08:47.558Z,3.05
2022-09-27T04:11:16.345Z,3.88
2022-09-27T04:13:49.219Z,2.38
2022-09-27T04:16:19.017Z,3.45
2022-09-27T04:19:08.773Z,3.47
2022-09-27T04:21:47.077Z,2.55
2022-09-27T04:24:18.581Z,2.55
2022-09-27T04:26:59.446Z,2.38
2022-09-27T04:29:29.252Z,2.50
2022-09-27T04:32:03.760Z,2.20
2022-09-27T04:35:07.747Z,2.20
2022-09-27T04:37:36.915Z,2.20
2022-09-27T04:40:07.257Z,2.40
2022-09-27T04:42:36.792Z,2.78
2022-09-27T04:45:05.501Z,2.70
2022-09-27T04:47:34.313Z,2.65
2022-09-27T04:50:03.280Z,2.03
2022-09-27T04:52:32.535Z,1.45
2022-09-27T04:55:00.841Z,2.03
2022-09-27T04:57:32.706Z,1.50
2022-09-27T05:00:01.337Z,1.80
2022-09-27T05:02:31.400Z,2.08
2022-09-27T05:05:22.852Z,1.60
2022-09-27T05:07:52.120Z,1.83
2022-09-27T05:10:31.566Z,2.30
2022-09-27T05:13:01.256Z,1.60
2022-09-27T05:15:29.515Z,1.75
2022-09-27T05:18:33.527Z,2.03
2022-09-27T05:21:26.099Z,1.75
2022-09-27T05:23:54.413Z,1.60
2022-09-27T05:26:22.629Z,1.75
2022-09-27T05:28:52.817Z,1.73
2022-09-27T05:31:21.172Z,3.03
2022-09-27T05:33:50.493Z,1.40
2022-09-27T05:36:33.223Z,2.08
2022-09-27T05:39:01.561Z,1.83
2022-09-27T05:41:32.914Z,2.47
2022-09-27T05:44:05.993Z,1.83
2022-09-27T05:46:39.301Z,1.80
2022-09-27T05:49:07.735Z,2.28
2022-09-27T05:51:36.495Z,1.52
2022-09-27T05:54:05.039Z,1.30
2022-09-27T05:56:33.524Z,1.77
2022-09-27T05:59:27.146Z,1.65
2022-09-27T06:02:13.920Z,1.70
2022-09-27T06:05:17.520Z,2.10
2022-09-27T06:08:06.613Z,1.95
2022-09-27T06:10:42.081Z,1.40
2022-09-27T06:13:13.648Z,1.52
2022-09-27T06:15:46.661Z,1.70
2022-09-27T06:18:18.242Z,2.13
2022-09-27T06:20:51.822Z,1.25
2022-09-27T06:23:22.553Z,1.40
2022-09-27T06:25:52.473Z,1.58
2022-09-27T06:28:23.749Z,1.30
2022-09-27T06:30:57.961Z,1.45
2022-09-27T06:33:52.015Z,0.90
2022-09-27T06:36:20.465Z,0.90
2022-09-27T06:38:49.840Z,0.80
2022-09-27T06:41:23.882Z,0.65
2022-09-27T06:44:14.512Z,0.75
2022-09-27T06:47:23.807Z,0.93
2022-09-27T06:50:07.624Z,0.90
2022-09-27T06:52:37.163Z,0.70
2022-09-27T06:55:06.957Z,0.77
2022-09-27T06:57:53.446Z,0.70
2022-09-27T07:00:27.691Z,0.70
2022-09-27T07:03:36.484Z,0.90
2022-09-27T07:06:39.668Z,0.80
2022-09-27T07:09:20.543Z,0.65
2022-09-27T07:11:52.349Z,0.80
2022-09-27T07:14:22.785Z,0.80
2022-09-27T07:16:51.819Z,0.63
2022-09-27T07:19:25.402Z,0.70
2022-09-27T07:21:53.793Z,1.17
2022-09-27T07:24:22.256Z,1.33
2022-09-27T07:26:51.162Z,1.08
2022-09-27T07:29:22.386Z,1.20
2022-09-27T07:31:53.744Z,1.55
2022-09-27T07:34:22.600Z,1.30
2022-09-27T07:36:55.101Z,1.58
2022-09-27T07:39:23.901Z,1.90
2022-09-27T07:41:52.433Z,1.63
2022-09-27T07:44:20.822Z,1.83
2022-09-27T07:47:11.088Z,2.05
2022-09-27T07:50:10.779Z,1.75
2022-09-27T07:52:56.948Z,1.48
2022-09-27T07:55:44.097Z,2.00
2022-09-27T07:58:21.245Z,2.00
2022-09-27T08:00:51.683Z,1.95
2022-09-27T08:03:36.279Z,1.67
2022-09-27T08:06:05.475Z,1.67
2022-09-27T08:08:35.372Z,1.45
2022-09-27T08:11:13.838Z,1.40
2022-09-27T08:13:42.306Z,1.30
2022-09-27T08:16:11.633Z,1.25
2022-09-27T08:19:02.760Z,1.30
2022-09-27T08:22:03.237Z,1.23
2022-09-27T08:24:58.098Z,1.20
2022-09-27T08:27:41.502Z,1.60
2022-09-27T08:30:24.533Z,1.40
2022-09-27T08:32:57.005Z,1.80
2022-09-27T08:35:26.655Z,1.40
2022-09-27T08:37:56.811Z,1.85
2022-09-27T08:40:44.613Z,1.63
2022-09-27T08:43:19.736Z,1.70
2022-09-27T08:46:15.897Z,1.90
2022-09-27T08:48:46.618Z,2.55
2022-09-27T08:51:17.815Z,2.08
2022-09-27T08:53:52.171Z,1.92
2022-09-27T08:56:24.283Z,2.13
2022-09-27T08:58:57.576Z,1.80
2022-09-27T09:01:31.320Z,1.90
2022-09-27T09:04:10.566Z,2.08
2022-09-27T09:06:44.216Z,2.10
2022-09-27T09:09:27.628Z,2.13
2022-09-27T09:12:39.344Z,1.65
2022-09-27T09:15:17.418Z,1.67
2022-09-27T09:18:03.530Z,1.80
2022-09-27T09:21:14.045Z,1.70
2022-09-27T09:24:10.594Z,1.50
2022-09-27T09:26:49.187Z,2.05
2022-09-27T09:29:40.842Z,1.92
2022-09-27T09:32:24.177Z,1.80
2022-09-27T09:35:01.167Z,1.73
2022-09-27T09:37:38.037Z,2.70
2022-09-27T09:40:29.913Z,2.35
2022-09-27T09:43:03.431Z,2.50
2022-09-27T09:45:37.562Z,2.92
2022-09-27T09:48:10.589Z,2.75
2022-09-27T09:50:43.842Z,2.30
2022-09-27T09:53:17.447Z,2.58
2022-09-27T09:55:52.125Z,1.85
2022-09-27T09:58:25.364Z,2.47
2022-09-27T10:01:11.357Z,2.10
2022-09-27T10:03:40.071Z,2.00
2022-09-27T10:06:10.831Z,2.17
2022-09-27T10:08:41.120Z,1.95
2022-09-27T10:11:38.243Z,1.90
2022-09-27T10:14:22.574Z,1.88
2022-09-27T10:17:00.389Z,2.08
2022-09-27T10:19:32.097Z,1.90
2022-09-27T10:22:04.698Z,1.70
2022-09-27T10:24:58.909Z,1.80
2022-09-27T10:28:01.244Z,1.80
2022-09-27T10:30:35.914Z,2.17
2022-09-27T10:33:19.178Z,1.92
2022-09-27T10:36:01.250Z,1.80
2022-09-27T10:38:33.641Z,2.20
2022-09-27T10:41:23.266Z,2.20
2022-09-27T10:43:53.557Z,2.08
2022-09-27T10:46:29.800Z,1.95
2022-09-27T10:49:14.278Z,1.98
2022-09-27T10:51:44.092Z,1.98
2022-09-27T10:54:23.163Z,2.13
2022-09-27T10:57:01.683Z,2.50
2022-09-27T10:59:33.068Z,2.40
2022-09-27T11:02:01.926Z,1.85
2022-09-27T11:05:04.871Z,1.80
2022-09-27T11:07:37.405Z,1.77
2022-09-27T11:10:27.998Z,1.80
2022-09-27T11:13:17.343Z,1.85
2022-09-27T11:16:06.055Z,1.20
2022-09-27T11:18:42.773Z,1.83
2022-09-27T11:21:23.734Z,1.65
2022-09-27T11:24:05.671Z,1.98
2022-09-27T11:26:46.714Z,2.25
2022-09-27T11:29:26.884Z,1.60
2022-09-27T11:32:27.501Z,2.20
2022-09-27T11:35:16.078Z,1.98
2022-09-27T11:37:54.660Z,1.90
2022-09-27T11:40:33.020Z,0.98
2022-09-27T11:43:37.701Z,0.95
2022-09-27T11:46:25.333Z,0.90
2022-09-27T11:49:24.375Z,0.70
2022-09-27T11:52:17.902Z,0.80
2022-09-27T11:55:09.196Z,0.70
2022-09-27T11:57:43.159Z,0.63
2022-09-27T12:00:18.006Z,0.60
2022-09-27T12:03:35.109Z,0.50
2022-09-27T12:06:12.639Z,0.80
2022-09-27T12:08:53.516Z,0.50
2022-09-27T12:11:28.210Z,0.55
2022-09-27T12:14:01.170Z,0.70
2022-09-27T12:16:32.473Z,0.68
2022-09-27T12:19:03.060Z,0.60
2022-09-27T12:22:05.407Z,1.00
2022-09-27T12:24:38.616Z,0.75
2022-09-27T12:27:33.930Z,0.90
2022-09-27T12:30:03.433Z,1.33
2022-09-27T12:32:38.867Z,1.05
2022-09-27T12:35:16.334Z,1.27
2022-09-27T12:37:51.371Z,0.95
2022-09-27T12:40:23.182Z,1.23
2022-09-27T12:42:59.131Z,1.30
2022-09-27T12:45:48.530Z,1.25
2022-09-27T12:48:30.156Z,1.30
2022-09-27T12:51:08.703Z,1.20
2022-09-27T12:53:56.041Z,1.13
2022-09-27T12:56:36.671Z,1.38
2022-09-27T12:59:35.474Z,1.58
2022-09-27T13:02:27.243Z,1.00
2022-09-27T13:05:10.084Z,1.10
2022-09-27T13:07:54.229Z,1.10
2022-09-27T13:10:41.570Z,0.90
2022-09-27T13:13:26.544Z,1.00
2022-09-27T13:16:00.242Z,1.15
2022-09-27T13:19:01.350Z,1.20
2022-09-27T13:21:56.953Z,1.27
2022-09-27T13:24:49.801Z,0.70
2022-09-27T13:27:40.645Z,0.80
2022-09-27T13:30:50.822Z,1.00
2022-09-27T13:33:47.460Z,1.05
2022-09-27T13:36:30.648Z,1.00
2022-09-27T13:39:23.258Z,0.70
2022-09-27T13:42:45.049Z,0.80
2022-09-27T13:45:24.337Z,1.00
2022-09-27T13:47:57.084Z,1.10
2022-09-27T13:50:41.079Z,1.13
2022-09-27T13:53:25.296Z,0.80
2022-09-27T13:55:55.090Z,0.90
2022-09-27T13:58:45.610Z,0.77
2022-09-27T14:01:36.741Z,0.80
2022-09-27T14:04:14.445Z,0.90
2022-09-27T14:06:50.276Z,0.90
2022-09-27T14:09:21.939Z,0.75
2022-09-27T14:12:03.965Z,1.20
2022-09-27T14:14:34.836Z,0.95
2022-09-27T14:17:12.986Z,1.20
2022-09-27T14:19:44.546Z,0.75
2022-09-27T14:22:20.992Z,1.15
2022-09-27T14:24:57.116Z,0.90
2022-09-27T14:27:30.776Z,1.20
2022-09-27T14:30:15.341Z,1.05
2022-09-27T14:32:49.755Z,0.90
2022-09-27T14:35:50.997Z,1.00
2022-09-27T14:38:39.134Z,1.30
2022-09-27T14:41:37.566Z,0.98
2022-09-27T14:44:05.830Z,1.05
2022-09-27T14:46:34.722Z,0.98
2022-09-27T14:49:18.956Z,1.17
2022-09-27T14:51:53.762Z,1.00
2022-09-27T14:54:26.816Z,1.08
2022-09-27T14:57:18.205Z,1.38
2022-09-27T14:59:48.016Z,0.70
2022-09-27T15:02:22.185Z,1.00
2022-09-27T15:05:16.734Z,0.95
2022-09-27T15:07:46.668Z,0.85
2022-09-27T15:10:21.307Z,0.80
2022-09-27T15:12:52.113Z,0.95
2022-09-27T15:15:23.771Z,1.17
2022-09-27T15:17:52.064Z,1.10
2022-09-27T15:20:24.600Z,0.80
2022-09-27T15:22:53.435Z,1.10
2022-09-27T15:25:32.454Z,1.08
2022-09-27T15:28:04.706Z,1.70
2022-09-27T15:30:38.330Z,1.17
2022-09-27T15:33:08.170Z,1.30
2022-09-27T15:35:37.378Z,1.00
2022-09-27T15:38:26.570Z,1.10
2022-09-27T15:41:14.657Z,0.95
2022-09-27T15:43:46.530Z,1.55
2022-09-27T15:46:37.865Z,1.20
2022-09-27T15:49:38.983Z,1.40
2022-09-27T15:52:07.790Z,1.67
2022-09-27T15:54:36.614Z,1.35
2022-09-27T15:57:07.763Z,1.10
2022-09-27T15:59:37.694Z,0.90
2022-09-27T16:02:13.880Z,1.40
2022-09-27T16:04:42.203Z,1.13
2022-09-27T16:07:12.738Z,0.90
2022-09-27T16:09:40.958Z,1.50
2022-09-27T16:12:11.605Z,0.90
2022-09-27T16:14:39.817Z,1.10
2022-09-27T16:17:08.102Z,1.20
2022-09-27T16:19:39.527Z,1.20
2022-09-27T16:22:07.703Z,1.05
2022-09-27T16:24:35.914Z,1.75
2022-09-27T16:27:04.999Z,1.30
2022-09-27T16:29:53.612Z,1.77
2022-09-27T16:32:22.814Z,1.20
2022-09-27T16:34:51.365Z,1.52
2022-09-27T16:37:19.531Z,1.30
2022-09-27T16:39:47.710Z,1.10
2022-09-27T16:42:16.012Z,1.00
2022-09-27T16:44:44.133Z,1.40
2022-09-27T16:47:13.806Z,1.45
2022-09-27T16:49:59.402Z,1.20
2022-09-27T16:52:32.494Z,1.20
2022-09-27T16:55:00.999Z,1.25
2022-09-27T16:57:29.281Z,1.38
2022-09-27T16:59:57.925Z,1.40
2022-09-27T17:02:27.645Z,1.17
2022-09-27T17:04:56.535Z,1.30
2022-09-27T17:07:25.529Z,1.48
2022-09-27T17:09:53.696Z,1.20
2022-09-27T17:12:22.651Z,1.45
2022-09-27T17:14:51.373Z,1.30
2022-09-27T17:17:19.726Z,2.17
2022-09-27T17:19:50.180Z,1.52
2022-09-27T17:22:18.624Z,1.80
2022-09-27T17:24:46.788Z,1.80
2022-09-27T17:27:16.039Z,1.58
2022-09-27T17:29:44.049Z,1.63
2022-09-27T17:32:13.775Z,1.73
2022-09-27T17:34:43.645Z,1.48
2022-09-27T17:37:13.196Z,1.30
2022-09-27T17:39:42.274Z,2.00
2022-09-27T17:42:12.744Z,1.67
2022-09-27T17:44:42.534Z,1.50
2022-09-27T17:47:28.005Z,1.30
2022-09-27T17:50:13.375Z,1.30
2022-09-27T17:52:42.873Z,1.90
2022-09-27T17:55:11.016Z,1.70
2022-09-27T17:57:39.433Z,1.52
2022-09-27T18:00:09.034Z,1.30
2022-09-27T18:02:44.999Z,1.17
2022-09-27T18:05:13.310Z,1.40
2022-09-27T18:07:42.859Z,1.33
2022-09-27T18:10:11.526Z,1.30
2022-09-27T18:12:39.978Z,1.48
2022-09-27T18:15:10.062Z,1.13
2022-09-27T18:17:38.564Z,0.93
2022-09-27T18:20:07.335Z,1.23
2022-09-27T18:22:35.552Z,1.10
2022-09-27T18:25:05.557Z,1.15
2022-09-27T18:27:34.737Z,0.90
2022-09-27T18:30:03.470Z,1.20
2022-09-27T18:32:31.610Z,1.45
2022-09-27T18:34:59.812Z,1.35
2022-09-27T18:37:28.873Z,1.38
2022-09-27T18:39:56.953Z,1.20
2022-09-27T18:42:26.683Z,1.45
2022-09-27T18:44:54.655Z,1.30
2022-09-27T18:47:32.287Z,1.13
2022-09-27T18:50:01.198Z,1.10
2022-09-27T18:52:29.393Z,1.00
2022-09-27T18:54:59.302Z,0.80
2022-09-27T18:57:28.607Z,0.98
2022-09-27T18:59:56.618Z,1.05
2022-09-27T19:02:24.723Z,0.85
2022-09-27T19:04:52.721Z,1.35
2022-09-27T19:07:20.766Z,0.82
2022-09-27T19:09:48.823Z,0.93
2022-09-27T19:12:20.279Z,1.10
2022-09-27T19:14:49.688Z,1.05
2022-09-27T19:17:17.864Z,0.85
2022-09-27T19:19:45.900Z,0.93
2022-09-27T19:22:13.964Z,0.77
2022-09-27T19:24:51.043Z,0.75
2022-09-27T19:27:19.221Z,0.88
2022-09-27T19:29:49.766Z,0.88
2022-09-27T19:32:17.968Z,0.88
2022-09-27T19:34:46.407Z,0.80
2022-09-27T19:37:14.620Z,0.77
2022-09-27T19:39:42.817Z,0.98
2022-09-27T19:42:10.987Z,1.60
2022-09-27T19:44:39.314Z,1.00
2022-09-27T19:47:09.105Z,1.23
2022-09-27T19:49:37.273Z,1.23
2022-09-27T19:52:05.588Z,1.45
2022-09-27T19:54:49.310Z,1.10
2022-09-27T19:57:18.192Z,0.80
2022-09-27T19:59:46.587Z,1.10
2022-09-27T20:02:16.201Z,0.85
2022-09-27T20:04:45.447Z,0.80
2022-09-27T20:07:13.891Z,1.00
2022-09-27T20:09:42.340Z,0.95
2022-09-27T20:12:10.971Z,1.05
2022-09-27T20:14:41.713Z,0.90
2022-09-27T20:17:10.435Z,1.10
2022-09-27T20:19:40.222Z,1.00
2022-09-27T20:22:08.450Z,1.10
2022-09-27T20:24:37.550Z,1.10
2022-09-27T20:27:05.758Z,0.98
2022-09-27T20:29:34.442Z,0.80
2022-09-27T20:32:26.016Z,1.10
2022-09-27T20:34:52.735Z,0.60
2022-09-27T20:37:21.011Z,0.95
2022-09-27T20:39:49.762Z,1.08
2022-09-27T20:42:18.051Z,1.10
2022-09-27T20:44:48.678Z,1.02
2022-09-27T20:47:19.080Z,1.15
2022-09-27T20:49:47.762Z,1.45
2022-09-27T20:52:17.440Z,0.70
2022-09-27T20:54:45.617Z,1.30
2022-09-27T20:57:14.268Z,0.95
2022-09-27T20:59:42.576Z,0.90
2022-09-27T21:02:10.846Z,0.80
2022-09-27T21:04:39.236Z,0.90
2022-09-27T21:07:07.599Z,0.73
2022-09-27T21:09:38.699Z,0.75
2022-09-27T21:12:07.150Z,0.70
2022-09-27T21:14:35.462Z,0.90
2022-09-27T21:17:03.818Z,1.08
2022-09-27T21:19:32.240Z,1.35
2022-09-27T21:22:00.594Z,1.00
2022-09-27T21:24:28.920Z,1.02
2022-09-27T21:26:58.798Z,1.08
2022-09-27T21:29:27.051Z,1.05
2022-09-27T21:31:55.214Z,1.00
2022-09-27T21:34:23.586Z,1.15
2022-09-27T21:36:52.202Z,0.80
2022-09-27T21:39:20.400Z,0.77
2022-09-27T21:41:48.520Z,0.80
2022-09-27T21:44:18.013Z,1.05
2022-09-27T21:46:46.354Z,1.00
2022-09-27T21:49:14.640Z,0.82
2022-09-27T21:51:44.586Z,0.80
2022-09-27T21:54:15.219Z,0.85
2022-09-27T21:56:44.750Z,1.05
2022-09-27T21:59:15.796Z,1.20
2022-09-27T22:01:46.714Z,1.13
2022-09-27T22:04:15.204Z,1.02
2022-09-27T22:06:43.628Z,1.00
2022-09-27T22:09:15.334Z,0.98
2022-09-27T22:11:56.829Z,1.10
2022-09-27T22:14:25.202Z,1.00
2022-09-27T22:16:54.892Z,1.25
2022-09-27T22:19:23.510Z,1.15
2022-09-27T22:21:51.859Z,0.90
2022-09-27T22:24:20.276Z,0.70
2022-09-27T22:26:50.799Z,1.10
2022-09-27T22:29:19.507Z,1.30
2022-09-27T22:31:48.483Z,1.23
2022-09-27T22:34:28.793Z,1.00
2022-09-27T22:36:58.628Z,1.10
2022-09-27T22:39:27.002Z,1.50
2022-09-27T22:41:55.252Z,1.00
2022-09-27T22:44:24.286Z,0.88
2022-09-27T22:46:52.472Z,0.82
2022-09-27T22:49:22.144Z,0.63
2022-09-27T22:51:50.512Z,0.90
2022-09-27T22:54:19.275Z,0.90
2022-09-27T22:56:57.113Z,0.88
2022-09-27T22:59:25.937Z,0.70
2022-09-27T23:01:54.621Z,0.80
2022-09-27T23:04:24.174Z,0.90
2022-09-27T23:06:52.477Z,0.90
2022-09-27T23:09:20.540Z,0.88
2022-09-27T23:11:48.759Z,0.90
2022-09-27T23:14:17.385Z,0.70
2022-09-27T23:16:45.519Z,0.90
2022-09-27T23:19:15.198Z,1.00
2022-09-27T23:21:44.727Z,0.80
2022-09-27T23:24:13.211Z,0.90
2022-09-27T23:26:41.371Z,0.95
2022-09-27T23:29:14.571Z,0.80
2022-09-27T23:31:42.782Z,0.90
2022-09-27T23:34:14.919Z,1.00
2022-09-27T23:36:44.453Z,0.95
2022-09-27T23:39:12.656Z,1.00
2022-09-27T23:41:41.310Z,1.20
2022-09-27T23:44:09.439Z,1.02
2022-09-27T23:46:37.701Z,1.00
2022-09-27T23:49:06.016Z,1.05
2022-09-27T23:51:34.355Z,1.20
2022-09-27T23:54:04.444Z,0.80
2022-09-27T23:56:32.472Z,1.10
2022-09-27T23:59:01.042Z,1.30
